Time;durP1;ratioP1;P1;durP2;ratioP2;P2;SDS_P1;SDS_P2;PMS_P1;PMS_P2;Temp;Humidity;BMP_temperature;BMP_pressure;BME280_temperature;BME280_humidity;BME280_pressure;Samples;Min_cycle;Max_cycle;Signal;HPM_P1;HPM_P2
2023/06/12 00:02:20;;;;;;;10.52;4.70;;;;;;;23.36;46.02;101524.38;4950418;28;20047;-73
2023/06/12 00:04:46;;;;;;;6.55;4.22;;;;;;;23.32;46.05;101528.50;4960721;28;20051;-70
2023/06/12 00:07:16;;;;;;;6.25;4.55;;;;;;;23.25;46.27;101520.53;4963962;28;20729;-71
2023/06/12 00:09:43;;;;;;;6.30;4.10;;;;;;;23.24;46.08;101519.69;4960139;28;20107;-74
2023/06/12 00:12:10;;;;;;;6.47;4.30;;;;;;;23.14;46.35;101524.69;4952781;28;20085;-73
2023/06/12 00:14:37;;;;;;;6.03;3.97;;;;;;;23.09;46.60;101525.31;4974934;28;20053;-73
2023/06/12 00:17:04;;;;;;;8.57;4.13;;;;;;;23.03;46.94;101514.63;4950639;28;20059;-72
2023/06/12 00:19:30;;;;;;;9.10;4.40;;;;;;;22.99;47.15;101529.44;4968832;28;20051;-72
2023/06/12 00:21:57;;;;;;;7.38;4.53;;;;;;;22.93;47.26;101516.91;4963207;28;20118;-73
2023/06/12 00:24:23;;;;;;;8.63;4.90;;;;;;;22.89;47.50;101524.53;4969008;28;20571;-72
2023/06/12 00:26:50;;;;;;;6.95;4.22;;;;;;;22.79;47.83;101524.97;4967647;28;20046;-72
2023/06/12 00:29:17;;;;;;;5.65;4.20;;;;;;;22.76;47.46;101524.56;4967003;28;20051;-72
2023/06/12 00:31:44;;;;;;;10.13;4.85;;;;;;;22.73;47.82;101528.50;4968737;28;20109;-72
2023/06/12 00:34:11;;;;;;;7.90;4.32;;;;;;;22.73;47.39;101531.16;4963140;28;20090;-72
2023/06/12 00:36:37;;;;;;;6.85;4.32;;;;;;;22.68;47.90;101531.00;4971126;28;20480;-72
2023/06/12 00:39:05;;;;;;;8.77;4.50;;;;;;;22.62;48.71;101531.81;4966096;28;20059;-72
2023/06/12 00:41:32;;;;;;;10.02;4.05;;;;;;;22.48;49.58;101525.66;4970814;28;20531;-73
2023/06/12 00:43:58;;;;;;;6.18;4.32;;;;;;;22.49;48.71;101525.47;4971441;28;20133;-72
2023/06/12 00:46:25;;;;;;;8.68;4.50;;;;;;;22.42;49.46;101526.50;4971109;28;20046;-72
2023/06/12 00:48:52;;;;;;;7.40;4.50;;;;;;;22.39;49.95;101526.94;4969486;28;20078;-72
2023/06/12 00:51:18;;;;;;;9.40;4.60;;;;;;;22.34;49.84;101518.72;4963248;28;20672;-72
2023/06/12 00:53:45;;;;;;;7.25;4.40;;;;;;;22.28;50.21;101517.69;4969449;28;20050;-72
2023/06/12 00:56:13;;;;;;;7.65;4.53;;;;;;;22.22;50.22;101516.63;4962255;28;20070;-72
2023/06/12 00:58:39;;;;;;;;;;;;;;;22.23;50.27;101528.16;4962577;28;20057;-72
2023/06/12 01:01:08;;;;;;;8.85;4.25;;;;;;;22.21;50.14;101520.34;4962860;28;19926;-72
2023/06/12 01:03:36;;;;;;;9.30;4.30;;;;;;;22.18;49.52;101511.91;4952609;28;20065;-72
2023/06/12 01:06:08;;;;;;;5.30;4.38;;;;;;;22.15;49.92;101523.84;4970554;28;20125;-72
2023/06/12 01:08:53;;;;;;;6.75;4.45;;;;;;;22.15;49.73;101529.19;4948853;28;20325;-72
2023/06/12 01:11:21;;;;;;;6.70;4.60;;;;;;;22.08;49.84;101515.81;4959120;28;20047;-72
2023/06/12 01:13:47;;;;;;;7.80;4.20;;;;;;;22.03;50.08;101515.63;4955676;28;20105;-72
2023/06/12 01:16:14;;;;;;;4.60;4.05;;;;;;;22.07;49.70;101516.00;4977820;28;20165;-73
2023/06/12 01:18:41;;;;;;;5.88;4.32;;;;;;;22.05;49.90;101523.41;4957372;28;20050;-72
2023/06/12 01:21:14;;;;;;;5.90;4.23;;;;;;;22.03;49.82;101509.44;4972342;28;20080;-72
2023/06/12 01:24:00;;;;;;;7.75;4.38;;;;;;;21.98;50.66;101509.25;4966696;28;20046;-71
2023/06/12 01:26:45;;;;;;;8.68;4.55;;;;;;;21.91;50.59;101514.56;4962176;28;20050;-71
2023/06/12 01:29:28;;;;;;;6.47;4.15;;;;;;;21.84;50.90;101511.91;4970095;28;20434;-72
2023/06/12 01:32:04;;;;;;;8.80;4.20;;;;;;;21.77;50.69;101508.41;4969280;28;20043;-72
2023/06/12 01:34:43;;;;;;;6.40;4.40;;;;;;;21.70;51.27;101518.28;4951469;28;20051;-72
2023/06/12 01:37:19;;;;;;;5.90;4.07;;;;;;;21.71;50.76;101511.88;4962774;28;20396;-72
2023/06/12 01:39:54;;;;;;;5.88;4.38;;;;;;;21.65;50.79;101510.03;4962259;28;20162;-72
2023/06/12 01:42:23;;;;;;;7.35;4.75;;;;;;;21.55;51.71;101517.63;4966276;28;20096;-72
2023/06/12 01:44:50;;;;;;;5.75;4.38;;;;;;;21.49;51.54;101517.41;4969414;28;20483;-72
2023/06/12 01:47:17;;;;;;;4.47;3.92;;;;;;;21.42;51.79;101516.50;4964251;28;20058;-72
2023/06/12 01:49:44;;;;;;;7.57;4.93;;;;;;;21.39;51.94;101521.47;4969129;28;20051;-72
2023/06/12 01:52:11;;;;;;;8.30;5.10;;;;;;;21.31;52.19;101525.13;4961340;28;20058;-72
2023/06/12 01:54:37;;;;;;;6.97;4.60;;;;;;;21.32;52.25;101524.09;4962670;28;20499;-72
2023/06/12 01:57:05;;;;;;;8.18;4.55;;;;;;;21.28;52.64;101520.19;4970147;28;20050;-72
2023/06/12 01:59:34;;;;;;;5.78;4.63;;;;;;;21.26;52.59;101524.91;4962473;28;20113;-72
2023/06/12 02:02:01;;;;;;;7.97;4.68;;;;;;;21.21;52.98;101524.66;4952117;28;20042;-72
2023/06/12 02:04:29;;;;;;;6.68;4.40;;;;;;;21.17;53.46;101520.75;4954806;28;20506;-71
2023/06/12 02:06:55;;;;;;;6.55;4.47;;;;;;;21.19;52.73;101524.88;4957239;28;20047;-72
2023/06/12 02:09:22;;;;;;;5.63;4.40;;;;;;;21.18;52.60;101520.56;4960622;28;20570;-71
2023/06/12 02:11:48;;;;;;;7.90;4.85;;;;;;;21.14;53.72;101524.66;4965353;28;20138;-72
2023/06/12 02:14:15;;;;;;;8.13;4.95;;;;;;;21.06;53.76;101522.16;4968921;28;20097;-68
2023/06/12 02:16:45;;;;;;;5.88;4.25;;;;;;;21.06;53.53;101525.63;4974670;28;20046;-67
2023/06/12 02:19:12;;;;;;;7.82;4.93;;;;;;;21.05;54.22;101528.50;4973464;28;20562;-69
2023/06/12 02:21:39;;;;;;;8.25;4.30;;;;;;;21.01;54.49;101522.75;4958428;28;20419;-68
2023/06/12 02:24:06;;;;;;;6.50;4.35;;;;;;;20.99;54.42;101527.44;4968325;28;20058;-68
2023/06/12 02:26:33;;;;;;;6.22;4.55;;;;;;;20.95;54.42;101534.19;4968993;28;20046;-68
2023/06/12 02:29:10;;;;;;;7.15;4.45;;;;;;;20.92;55.23;101538.09;4966923;28;20054;-68
2023/06/12 02:31:37;;;;;;;6.75;4.28;;;;;;;20.89;54.07;101535.81;4973869;28;20480;-69
2023/06/12 02:34:04;;;;;;;7.63;4.65;;;;;;;20.90;54.04;101532.13;4967485;28;20062;-71
2023/06/12 02:36:30;;;;;;;6.47;4.30;;;;;;;20.91;53.58;101528.47;4968154;28;20168;-69
2023/06/12 02:38:57;;;;;;;8.30;4.25;;;;;;;20.92;53.62;101526.59;4963942;28;20586;-71
2023/06/12 02:41:23;;;;;;;7.00;4.43;;;;;;;20.96;53.17;101533.19;4956980;28;20134;-70
2023/06/12 02:43:50;;;;;;;6.93;4.82;;;;;;;20.96;52.65;101530.53;4968143;28;20043;-72
2023/06/12 02:46:17;;;;;;;5.78;4.50;;;;;;;20.97;52.53;101524.16;4957963;28;20900;-72
2023/06/12 02:48:43;;;;;;;7.72;4.72;;;;;;;20.97;52.03;101528.66;4958497;28;20137;-72
2023/06/12 02:51:10;;;;;;;8.95;4.40;;;;;;;20.94;52.10;101530.72;4945608;28;20058;-72
2023/06/12 02:53:36;;;;;;;6.07;4.80;;;;;;;20.94;51.83;101529.91;4953108;28;20051;-72
2023/06/12 02:56:03;;;;;;;6.47;4.30;;;;;;;20.93;51.62;101534.41;4965577;28;20082;-72
2023/06/12 02:58:29;;;;;;;4.75;3.83;;;;;;;20.94;51.67;101532.56;4972370;28;20484;-72
2023/06/12 03:00:57;;;;;;;8.63;4.70;;;;;;;20.91;51.67;101533.78;4973391;28;20055;-72
2023/06/12 03:03:25;;;;;;;7.93;3.85;;;;;;;20.93;51.52;101536.25;4954340;28;20050;-72
2023/06/12 03:05:51;;;;;;;6.75;4.28;;;;;;;20.89;51.86;101530.47;4973981;28;20654;-72
2023/06/12 03:08:18;;;;;;;8.85;4.65;;;;;;;20.87;52.27;101539.69;4952246;28;20491;-72
2023/06/12 03:10:45;;;;;;;7.07;4.20;;;;;;;20.86;51.88;101533.56;4974071;28;20053;-72
2023/06/12 03:13:14;;;;;;;7.47;4.53;;;;;;;20.85;51.83;101534.56;4962053;28;20057;-72
2023/06/12 03:15:41;;;;;;;5.40;4.28;;;;;;;20.84;51.62;101540.94;4966781;28;20046;-72
2023/06/12 03:18:07;;;;;;;7.60;4.25;;;;;;;20.83;52.09;101530.44;4966392;28;20067;-72
2023/06/12 03:20:34;;;;;;;7.18;4.40;;;;;;;20.80;51.99;101537.00;4972011;28;20046;-72
2023/06/12 03:23:01;;;;;;;6.50;4.60;;;;;;;20.78;52.20;101535.53;4956765;28;20134;-72
2023/06/12 03:25:27;;;;;;;5.82;4.20;;;;;;;20.74;52.66;101533.28;4966201;28;20054;-71
2023/06/12 03:27:54;;;;;;;9.23;4.95;;;;;;;20.70;52.25;101533.88;4964811;28;20050;-72
2023/06/12 03:30:20;;;;;;;8.07;4.80;;;;;;;20.67;52.98;101534.25;4972879;28;20059;-72
2023/06/12 03:32:47;;;;;;;9.40;4.72;;;;;;;20.64;52.88;101535.50;4970109;28;20452;-72
2023/06/12 03:35:13;;;;;;;11.13;4.38;;;;;;;20.62;52.90;101539.34;4967185;28;20109;-72
2023/06/12 03:37:40;;;;;;;7.28;4.43;;;;;;;20.60;53.08;101528.91;4969525;28;20074;-72
2023/06/12 03:40:07;;;;;;;6.82;4.72;;;;;;;20.57;52.81;101534.59;4973646;28;20495;-72
2023/06/12 03:42:34;;;;;;;8.17;4.20;;;;;;;20.58;52.96;101530.91;4964138;28;20047;-73
2023/06/12 03:45:00;;;;;;;7.65;4.50;;;;;;;20.56;52.98;101527.59;4967507;28;20641;-72
2023/06/12 03:47:27;;;;;;;8.40;4.60;;;;;;;20.53;52.96;101533.31;4973898;28;20086;-72
2023/06/12 03:49:54;;;;;;;7.40;4.88;;;;;;;20.49;53.63;101538.22;4980600;28;20056;-72
2023/06/12 03:52:21;;;;;;;7.80;4.35;;;;;;;20.46;53.82;101538.59;4956244;28;20044;-72
2023/06/12 03:54:47;;;;;;;8.05;4.63;;;;;;;20.44;53.73;101540.63;4953196;28;20058;-72
2023/06/12 03:57:14;;;;;;;6.43;4.38;;;;;;;20.42;53.59;101540.00;4977419;28;20564;-72
2023/06/12 03:59:41;;;;;;;9.32;4.65;;;;;;;20.43;53.80;101539.00;4968429;28;20491;-72
2023/06/12 04:02:07;;;;;;;6.25;4.60;;;;;;;20.42;54.09;101537.34;4969546;28;20078;-72
2023/06/12 04:04:34;;;;;;;9.23;5.00;;;;;;;20.42;54.15;101540.00;4967653;28;20046;-72
2023/06/12 04:07:00;;;;;;;9.32;4.90;;;;;;;20.42;54.24;101544.50;4976332;28;20046;-72
2023/06/12 04:09:27;;;;;;;5.88;4.50;;;;;;;20.40;54.48;101550.03;4958655;28;20440;-71
2023/06/12 04:11:54;;;;;;;8.00;4.60;;;;;;;20.39;54.08;101547.59;4969243;28;20054;-72
2023/06/12 04:14:20;;;;;;;11.45;5.03;;;;;;;20.35;54.82;101547.97;4980226;28;20153;-72
2023/06/12 04:16:47;;;;;;;8.48;4.88;;;;;;;20.33;54.48;101538.53;4965984;28;20142;-72
2023/06/12 04:19:13;;;;;;;8.48;4.60;;;;;;;20.38;54.36;101545.91;4968945;28;20146;-72
2023/06/12 04:21:40;;;;;;;7.35;5.18;;;;;;;20.37;54.70;101545.09;4966406;28;20046;-72
2023/06/12 04:24:15;;;;;;;7.75;4.88;;;;;;;20.38;54.00;101545.91;4969317;28;20089;-72
2023/06/12 04:26:49;;;;;;;8.68;5.20;;;;;;;20.38;54.63;101545.91;4967546;28;20809;-73
2023/06/12 04:29:16;;;;;;;8.48;4.85;;;;;;;20.38;54.68;101548.59;4969452;28;20133;-72
2023/06/12 04:31:42;;;;;;;6.72;5.28;;;;;;;20.40;54.67;101543.88;4965979;28;20110;-72
2023/06/12 04:34:09;;;;;;;7.28;4.82;;;;;;;20.41;54.77;101549.03;4959377;28;20058;-72
2023/06/12 04:36:37;;;;;;;9.20;4.80;;;;;;;20.42;54.97;101547.19;4967936;28;20113;-72
2023/06/12 04:39:05;;;;;;;8.57;4.50;;;;;;;20.43;55.10;101543.50;4966349;28;20102;-72
2023/06/12 04:41:33;;;;;;;6.88;4.80;;;;;;;20.38;55.10;101541.41;4968533;28;20074;-72
2023/06/12 04:44:00;;;;;;;10.30;5.20;;;;;;;20.44;55.28;101548.63;4965427;28;20101;-72
2023/06/12 04:46:28;;;;;;;6.53;4.90;;;;;;;20.43;55.32;101543.50;4961243;28;20194;-71
2023/06/12 04:48:55;;;;;;;7.53;4.78;;;;;;;20.45;55.23;101547.63;4974791;28;20062;-72
2023/06/12 04:51:23;;;;;;;6.85;4.53;;;;;;;20.44;54.96;101545.97;4948909;28;20051;-72
2023/06/12 04:53:55;;;;;;;6.57;5.00;;;;;;;20.50;55.09;101544.34;4968041;28;20519;-72
2023/06/12 04:56:21;;;;;;;7.93;4.68;;;;;;;20.53;55.44;101547.47;4969316;28;20042;-72
2023/06/12 04:58:53;;;;;;;8.38;5.05;;;;;;;20.60;55.01;101544.91;4954786;28;20650;-72
2023/06/12 05:01:21;;;;;;;8.82;4.90;;;;;;;20.59;55.27;101535.25;4959082;28;20046;-72
2023/06/12 05:03:49;;;;;;;8.88;5.07;;;;;;;20.62;55.30;101536.69;4969839;28;20057;-72
2023/06/12 05:06:16;;;;;;;7.25;4.82;;;;;;;20.62;55.56;101550.84;4973202;28;20113;-72
2023/06/12 05:08:43;;;;;;;8.57;4.90;;;;;;;20.61;55.79;101541.19;4972747;28;20053;-72
2023/06/12 05:11:09;;;;;;;6.82;4.68;;;;;;;20.62;55.24;101537.53;4975544;28;20078;-72
2023/06/12 05:13:36;;;;;;;7.38;4.70;;;;;;;20.66;55.34;101545.94;4955270;28;20047;-71
2023/06/12 05:16:03;;;;;;;9.30;4.75;;;;;;;20.69;55.09;101540.22;4950074;28;20051;-72
2023/06/12 05:18:29;;;;;;;8.10;5.32;;;;;;;20.71;55.40;101552.31;4969584;28;20046;-72
2023/06/12 05:20:58;;;;;;;14.23;5.10;;;;;;;20.74;55.25;101548.47;4972973;28;20475;-72
2023/06/12 05:23:25;;;;;;;10.82;5.28;;;;;;;20.78;55.33;101557.72;4967618;28;20074;-71
2023/06/12 05:25:52;;;;;;;11.32;5.30;;;;;;;20.83;55.58;101559.78;4965593;28;20055;-70
2023/06/12 05:28:18;;;;;;;12.38;5.60;;;;;;;20.80;55.88;101550.34;4967153;28;20086;-71
2023/06/12 05:30:47;;;;;;;11.90;5.32;;;;;;;20.85;55.67;101552.41;4961748;28;20473;-70
2023/06/12 05:33:13;;;;;;;13.32;5.20;;;;;;;20.89;56.28;101557.13;4965314;28;20118;-70
2023/06/12 05:35:41;;;;;;;13.77;5.90;;;;;;;20.91;56.02;101551.63;4943504;28;20077;-70
2023/06/12 05:38:07;;;;;;;12.93;5.28;;;;;;;20.92;56.55;101548.75;4970428;28;20129;-71
2023/06/12 05:40:34;;;;;;;12.85;5.60;;;;;;;20.96;56.45;101561.72;4973846;28;20104;-71
2023/06/12 05:43:00;;;;;;;8.25;5.32;;;;;;;20.95;56.69;101552.88;4943256;28;20046;-71
2023/06/12 05:45:27;;;;;;;8.18;5.45;;;;;;;21.01;56.00;101554.78;4956031;28;20110;-70
2023/06/12 05:47:53;;;;;;;12.23;6.32;;;;;;;20.96;56.79;101551.84;4961958;28;20050;-71
2023/06/12 05:50:20;;;;;;;8.25;5.20;;;;;;;21.02;56.92;101551.06;4975598;28;20401;-71
2023/06/12 05:52:47;;;;;;;8.73;5.43;;;;;;;21.02;57.67;101548.41;4959720;28;21009;-71
2023/06/12 05:55:13;;;;;;;8.80;5.40;;;;;;;21.07;57.17;101553.13;4964148;28;20059;-71
2023/06/12 05:57:40;;;;;;;10.50;5.25;;;;;;;21.06;55.91;101557.66;4961094;28;20078;-70
2023/06/12 06:00:07;;;;;;;12.68;5.50;;;;;;;21.10;55.00;101569.56;4967750;28;20142;-71
2023/06/12 06:02:34;;;;;;;7.32;5.47;;;;;;;21.17;54.98;101566.09;4967224;28;20054;-70
2023/06/12 06:05:01;;;;;;;10.95;5.63;;;;;;;21.18;54.77;101565.91;4966596;28;20419;-71
2023/06/12 06:07:28;;;;;;;11.50;5.82;;;;;;;21.24;54.68;101574.97;4968724;28;20051;-70
2023/06/12 06:09:55;;;;;;;10.57;5.30;;;;;;;21.27;54.14;101567.38;4941710;28;20085;-71
2023/06/12 06:12:21;;;;;;;7.30;5.20;;;;;;;21.29;53.73;101569.88;4961115;28;20051;-71
2023/06/12 06:14:48;;;;;;;9.85;5.20;;;;;;;21.36;53.50;101570.69;4942097;28;20051;-71
2023/06/12 06:17:15;;;;;;;7.22;5.03;;;;;;;21.41;53.73;101567.44;4968295;28;20217;-71
2023/06/12 06:19:41;;;;;;;9.07;5.93;;;;;;;21.43;53.95;101563.56;4964655;28;20043;-71
2023/06/12 06:22:08;;;;;;;7.07;5.05;;;;;;;21.52;53.53;101569.53;4955365;28;20081;-70
2023/06/12 06:24:34;;;;;;;7.90;5.13;;;;;;;21.57;53.43;101576.97;4965518;28;20054;-71
2023/06/12 06:27:02;;;;;;;7.60;5.63;;;;;;;21.60;53.08;101574.72;4959395;28;20082;-71
2023/06/12 06:29:28;;;;;;;8.00;5.22;;;;;;;21.68;52.41;101574.53;4965811;28;20343;-71
2023/06/12 06:31:55;;;;;;;11.02;5.50;;;;;;;21.69;53.37;101565.47;4961136;28;20049;-71
2023/06/12 06:34:21;;;;;;;7.30;5.28;;;;;;;21.78;53.82;101575.97;4960888;28;20053;-72
2023/06/12 06:36:48;;;;;;;7.53;5.38;;;;;;;21.83;53.85;101576.19;4964447;28;20054;-72
2023/06/12 06:39:15;;;;;;;8.35;5.13;;;;;;;21.88;53.64;101577.25;4968295;28;20059;-72
2023/06/12 06:41:41;;;;;;;10.40;5.65;;;;;;;21.92;54.04;101570.47;4953216;28;20042;-72
2023/06/12 06:44:08;;;;;;;7.07;5.03;;;;;;;21.99;53.13;101569.66;4960088;28;20055;-72
2023/06/12 06:46:35;;;;;;;8.43;5.18;;;;;;;22.01;52.79;101568.44;4952912;28;20400;-71
2023/06/12 06:49:02;;;;;;;7.15;5.55;;;;;;;22.07;52.40;101575.63;4936855;28;20322;-72
2023/06/12 06:51:31;;;;;;;6.15;4.57;;;;;;;22.16;52.67;101575.41;4962214;28;20086;-72
2023/06/12 06:53:59;;;;;;;7.47;5.35;;;;;;;22.22;52.55;101580.75;4951482;28;20093;-70
2023/06/12 06:56:25;;;;;;;6.65;5.50;;;;;;;22.26;53.06;101574.00;4963722;28;20045;-69
2023/06/12 06:58:52;;;;;;;8.65;4.90;;;;;;;22.31;52.63;101570.72;4953043;28;20074;-69
2023/06/12 07:01:19;;;;;;;15.98;5.22;;;;;;;22.36;53.54;101559.41;4963205;28;20051;-70
2023/06/12 07:03:45;;;;;;;9.85;5.65;;;;;;;22.38;54.11;101562.69;4958742;28;20043;-70
2023/06/12 07:06:12;;;;;;;10.70;5.90;;;;;;;22.45;53.63;101572.34;4959713;28;20051;-69
2023/06/12 07:08:39;;;;;;;13.65;5.85;;;;;;;22.50;54.17;101569.06;4967351;28;20098;-69
2023/06/12 07:11:05;;;;;;;8.50;5.45;;;;;;;22.54;55.00;101569.47;4950676;28;20050;-69
2023/06/12 07:13:32;;;;;;;10.27;5.80;;;;;;;22.61;54.29;101562.25;4959690;28;20054;-69
2023/06/12 07:15:59;;;;;;;10.27;6.45;;;;;;;22.61;54.49;101564.94;4951454;28;20057;-70
2023/06/12 07:18:27;;;;;;;10.48;6.65;;;;;;;22.64;54.34;101553.81;4937986;28;20134;-68
2023/06/12 07:20:54;;;;;;;13.80;6.40;;;;;;;22.68;54.07;101560.41;4968995;28;20059;-70
2023/06/12 07:23:21;;;;;;;7.82;5.53;;;;;;;22.73;54.85;101554.41;4944559;28;20106;-70
2023/06/12 07:25:48;;;;;;;7.70;6.15;;;;;;;22.78;54.74;101558.13;4968690;28;20051;-69
2023/06/12 07:28:14;;;;;;;9.45;6.47;;;;;;;22.82;55.45;101554.00;4949359;28;20082;-68
2023/06/12 07:30:41;;;;;;;10.73;6.30;;;;;;;22.86;54.81;101557.06;4959340;28;20722;-69
2023/06/12 07:33:09;;;;;;;10.30;6.18;;;;;;;22.94;54.96;101548.00;4967251;28;20558;-69
2023/06/12 07:35:36;;;;;;;8.25;6.25;;;;;;;22.98;55.01;101552.69;4960871;28;20054;-69
2023/06/12 07:38:02;;;;;;;8.80;6.25;;;;;;;23.03;54.88;101550.25;4969499;28;20496;-71
2023/06/12 07:40:29;;;;;;;10.55;6.82;;;;;;;23.07;55.25;101548.81;4959371;28;20046;-70
2023/06/12 07:42:56;;;;;;;9.52;6.15;;;;;;;23.17;54.90;101552.84;4969538;28;20058;-70
2023/06/12 07:45:22;;;;;;;9.52;5.80;;;;;;;23.21;54.10;101548.75;4965730;28;20077;-70
2023/06/12 07:47:49;;;;;;;8.77;6.15;;;;;;;23.28;54.54;101553.00;4968595;28;20046;-70
2023/06/12 07:50:16;;;;;;;12.80;6.10;;;;;;;23.36;54.38;101546.59;4974216;28;20047;-70
2023/06/12 07:52:42;;;;;;;7.45;5.82;;;;;;;23.42;54.59;101543.09;4958828;28;20135;-70
2023/06/12 07:55:10;;;;;;;13.18;6.00;;;;;;;23.52;54.05;101547.13;4967797;28;20057;-71
2023/06/12 07:57:37;;;;;;;;;;;;;;;23.61;53.45;101552.00;4957922;28;20487;-70
2023/06/12 08:00:07;;;;;;;12.90;5.18;;;;;;;23.72;51.27;101544.31;4968625;28;20332;-70
2023/06/12 08:02:35;;;;;;;5.88;4.65;;;;;;;23.83;50.54;101536.44;4969588;28;20086;-70
2023/06/12 08:05:03;;;;;;;9.07;5.40;;;;;;;23.95;50.94;101543.78;4975076;28;20113;-70
2023/06/12 08:07:33;;;;;;;8.50;5.07;;;;;;;24.03;50.71;101538.16;4980053;28;20050;-70
2023/06/12 08:10:00;;;;;;;9.02;5.20;;;;;;;24.17;49.14;101536.19;4967884;28;20054;-70
2023/06/12 08:12:26;;;;;;;7.50;5.30;;;;;;;24.26;49.39;101534.88;4968363;28;20066;-70
2023/06/12 08:14:53;;;;;;;6.90;5.43;;;;;;;24.39;49.27;101531.25;4964816;28;20141;-69
2023/06/12 08:17:22;;;;;;;8.63;5.15;;;;;;;24.52;48.42;101538.38;4971652;28;20043;-70
2023/06/12 08:19:49;;;;;;;8.43;5.15;;;;;;;24.65;49.28;101535.53;4962688;28;20505;-70
2023/06/12 08:22:16;;;;;;;8.60;4.72;;;;;;;24.73;48.13;101529.88;4973131;28;20055;-68
2023/06/12 08:24:44;;;;;;;9.85;5.22;;;;;;;24.91;48.15;101534.41;4965080;28;20058;-69
2023/06/12 08:27:11;;;;;;;;;;;;;;;25.13;47.54;101536.63;4958172;28;20050;-68
2023/06/12 08:29:39;;;;;;;6.97;4.95;;;;;;;25.30;47.60;101534.19;4971437;28;20347;-68
2023/06/12 08:32:06;;;;;;;10.25;5.18;;;;;;;25.53;47.87;101525.41;4950115;28;20069;-68
2023/06/12 08:34:33;;;;;;;9.85;5.78;;;;;;;25.91;46.08;101534.97;4970548;28;20157;-68
2023/06/12 08:36:59;;;;;;;12.05;5.60;;;;;;;26.28;45.23;101522.13;4965765;28;20051;-67
2023/06/12 08:39:26;;;;;;;10.75;5.32;;;;;;;26.72;44.19;101525.28;4958255;28;20093;-69
2023/06/12 08:42:04;;;;;;;9.55;5.78;;;;;;;27.23;44.59;101528.16;4968004;28;20062;-68
2023/06/12 08:44:34;;;;;;;8.40;5.55;;;;;;;27.72;43.70;101533.91;4961134;28;20488;-68
2023/06/12 08:47:03;;;;;;;9.60;6.47;;;;;;;28.12;42.53;101519.44;4975710;28;20091;-69
2023/06/12 08:49:31;;;;;;;11.95;5.80;;;;;;;28.53;42.19;101519.25;4962232;28;20137;-68
2023/06/12 08:51:58;;;;;;;10.00;5.65;;;;;;;28.96;40.25;101521.13;4962538;28;20072;-67
2023/06/12 08:54:24;;;;;;;12.60;5.97;;;;;;;29.33;40.94;101525.06;4963379;28;20052;-68
2023/06/12 08:56:53;;;;;;;8.15;5.60;;;;;;;29.60;40.46;101521.50;4970723;28;20520;-68
2023/06/12 08:59:20;;;;;;;6.90;5.05;;;;;;;29.93;38.74;101512.31;4972087;28;20684;-67
2023/06/12 09:01:52;;;;;;;9.88;6.10;;;;;;;30.29;39.48;101521.50;4972743;28;20492;-68
2023/06/12 09:04:56;;;;;;;8.68;5.53;;;;;;;30.64;38.38;101519.25;4978198;28;20065;-68
2023/06/12 09:07:25;;;;;;;8.55;5.72;;;;;;;30.92;37.44;101509.91;4960955;28;20050;-68
2023/06/12 09:09:52;;;;;;;9.05;5.35;;;;;;;31.09;37.46;101509.69;4969230;28;20062;-68
2023/06/12 09:12:24;;;;;;;8.32;5.38;;;;;;;31.31;36.16;101510.25;4944591;28;20117;-68
2023/06/12 09:14:51;;;;;;;10.45;5.53;;;;;;;31.48;36.49;101515.47;4975477;28;20086;-68
2023/06/12 09:17:18;;;;;;;9.82;5.60;;;;;;;31.69;36.66;101504.59;4960963;28;20142;-68
2023/06/12 09:19:47;;;;;;;9.02;5.70;;;;;;;31.85;35.82;101513.53;4969528;28;20130;-68
2023/06/12 09:22:14;;;;;;;7.45;5.40;;;;;;;32.11;35.27;101500.78;4958912;28;20059;-68
2023/06/12 09:24:41;;;;;;;7.78;5.43;;;;;;;32.34;35.46;101507.47;4963730;28;20043;-68
2023/06/12 09:27:08;;;;;;;6.95;5.38;;;;;;;32.48;35.53;101503.09;4969608;28;20050;-68
2023/06/12 09:29:36;;;;;;;7.30;6.07;;;;;;;32.63;35.35;101496.81;4942486;28;20164;-68
2023/06/12 09:32:05;;;;;;;6.78;5.30;;;;;;;32.77;35.59;101494.28;4972009;28;20081;-68
2023/06/12 09:34:32;;;;;;;9.07;5.68;;;;;;;32.96;34.86;101499.09;4941164;28;20061;-68
2023/06/12 09:37:00;;;;;;;;;;;;;;;33.09;34.87;101495.75;4963882;28;20047;-68
2023/06/12 09:39:27;;;;;;;8.10;5.88;;;;;;;33.23;33.71;101501.38;4953668;28;20020;-67
2023/06/12 09:41:55;;;;;;;6.47;5.47;;;;;;;33.36;34.07;101494.47;4966488;28;20075;-69
2023/06/12 09:44:28;;;;;;;7.30;5.13;;;;;;;33.49;32.06;101493.84;4971617;28;20055;-68
2023/06/12 09:47:02;;;;;;;7.78;5.32;;;;;;;33.60;32.06;101498.09;4961367;28;20129;-68
2023/06/12 09:49:30;;;;;;;6.45;5.05;;;;;;;33.61;32.30;101482.56;4955620;28;20077;-68
2023/06/12 09:52:02;;;;;;;7.85;5.60;;;;;;;33.60;31.41;101487.22;4942343;28;20085;-69
2023/06/12 09:54:31;;;;;;;8.15;5.93;;;;;;;33.58;31.12;101491.28;4949902;28;20459;-68
2023/06/12 09:57:00;;;;;;;6.13;4.85;;;;;;;33.55;30.84;101486.44;4963710;28;20095;-68
2023/06/12 09:59:30;;;;;;;9.30;5.20;;;;;;;33.58;31.80;101470.38;4970167;28;20081;-68
2023/06/12 10:02:11;;;;;;;6.57;5.20;;;;;;;33.78;30.58;101480.28;4963668;28;20078;-68
2023/06/12 10:05:01;;;;;;;9.27;4.53;;;;;;;33.97;30.03;101482.25;4961021;28;20050;-68
2023/06/12 10:07:32;;;;;;;7.47;5.25;;;;;;;34.14;31.84;101485.31;4969841;28;20059;-67
2023/06/12 10:10:02;;;;;;;8.38;5.65;;;;;;;34.23;30.82;101477.38;4954325;28;20066;-68
2023/06/12 10:12:31;;;;;;;8.30;5.07;;;;;;;34.33;29.11;101474.53;4967668;28;20054;-68
2023/06/12 10:14:58;;;;;;;8.18;5.40;;;;;;;34.36;27.99;101473.91;4942797;28;20057;-68
2023/06/12 10:17:26;;;;;;;7.72;4.90;;;;;;;34.43;28.99;101479.84;4949584;28;20055;-68
2023/06/12 10:19:56;;;;;;;10.80;5.10;;;;;;;34.63;30.03;101476.03;4962435;28;20051;-68
2023/06/12 10:22:23;;;;;;;8.35;5.00;;;;;;;34.72;30.33;101475.41;4973794;28;20448;-69
2023/06/12 10:24:51;;;;;;;;;;;;;;;34.64;28.32;101476.84;4967529;28;20078;-68
2023/06/12 10:27:18;;;;;;;6.53;4.70;;;;;;;34.70;28.47;101475.72;4967013;28;19936;-68
2023/06/12 10:29:54;;;;;;;16.83;5.45;;;;;;;34.64;27.91;101463.22;4961856;28;20134;-68
2023/06/12 10:32:21;;;;;;;8.30;5.07;;;;;;;34.60;28.65;101471.19;4945117;28;20054;-68
2023/06/12 10:34:48;;;;;;;8.17;5.07;;;;;;;34.81;29.06;101462.72;4972879;28;20058;-68
2023/06/12 10:37:33;;;;;;;7.45;5.10;;;;;;;34.92;29.24;101452.50;4944844;28;20058;-68
2023/06/12 10:40:19;;;;;;;7.78;4.82;;;;;;;34.94;28.65;101447.56;4962067;28;20409;-68
2023/06/12 10:43:04;;;;;;;7.30;5.43;;;;;;;35.05;28.05;101459.94;4957751;28;20050;-69
2023/06/12 10:45:32;;;;;;;6.95;5.60;;;;;;;35.11;29.68;101449.72;4966133;28;20050;-68
2023/06/12 10:48:02;;;;;;;6.55;5.10;;;;;;;35.24;28.85;101451.75;4964594;28;20222;-68
2023/06/12 10:50:36;;;;;;;7.03;4.95;;;;;;;35.41;28.99;101445.72;4961438;28;20635;-69
2023/06/12 10:53:05;;;;;;;12.10;5.43;;;;;;;35.49;28.97;101457.88;4950241;28;20093;-68
2023/06/12 10:55:33;;;;;;;7.68;5.28;;;;;;;35.58;29.49;101447.91;4966133;28;20071;-70
2023/06/12 10:58:03;;;;;;;8.45;5.50;;;;;;;35.72;29.15;101446.00;4950272;28;20042;-68
2023/06/12 11:00:32;;;;;;;7.70;5.30;;;;;;;35.79;29.63;101443.72;4958919;28;20063;-68
2023/06/12 11:03:02;;;;;;;8.27;5.40;;;;;;;35.70;28.63;101448.25;4973065;28;20049;-68
2023/06/12 11:05:30;;;;;;;6.15;4.70;;;;;;;35.70;28.84;101440.06;4968884;28;20051;-69
2023/06/12 11:08:02;;;;;;;6.53;5.15;;;;;;;35.68;29.37;101452.34;4970932;28;20046;-70
2023/06/12 11:10:31;;;;;;;6.95;5.35;;;;;;;35.68;29.21;101441.44;4945973;28;20138;-68
2023/06/12 11:12:58;;;;;;;6.63;5.75;;;;;;;35.83;29.23;101433.81;4961341;28;20500;-68
2023/06/12 11:15:25;;;;;;;;;;;;;;;36.02;29.77;101443.78;4975499;28;20093;-70
2023/06/12 11:17:52;;;;;;;;;;;;;;;36.10;29.15;101443.06;4966838;28;19938;-70
2023/06/12 11:20:22;;;;;;;7.22;5.32;;;;;;;36.12;29.54;101440.84;4973867;28;19926;-72
2023/06/12 11:23:02;;;;;;;6.70;5.30;;;;;;;36.17;29.80;101432.59;4945567;28;20046;-69
2023/06/12 11:25:44;;;;;;;6.28;4.65;;;;;;;36.30;29.43;101433.66;4948897;28;20059;-70
2023/06/12 11:28:15;;;;;;;9.30;5.88;;;;;;;36.32;29.38;101428.72;4943445;28;20050;-69
2023/06/12 11:30:53;;;;;;;8.63;5.22;;;;;;;36.41;29.49;101426.09;4968624;28;20050;-69
2023/06/12 11:33:23;;;;;;;7.25;5.32;;;;;;;36.55;30.18;101434.25;4961691;28;20054;-69